Time;durP1;ratioP1;P1;durP2;ratioP2;P2;SDS_P1;SDS_P2;PMS_P1;PMS_P2;Temp;Humidity;BMP_temperature;BMP_pressure;BME280_temperature;BME280_humidity;BME280_pressure;Samples;Min_cycle;Max_cycle;Signal;HPM_P1;HPM_P2
2022/04/13 00:01:50;;;;;;;;;;;11.90;99.90;;;;;;5004288;28;20004;-78
2022/04/13 00:04:17;;;;;;;;;;;11.90;99.90;;;;;;5014560;28;19972;-78
2022/04/13 00:06:43;;;;;;;;;;;11.90;99.90;;;;;;4999797;28;19929;-78
2022/04/13 00:09:10;;;;;;;;;;;11.90;99.90;;;;;;5008342;28;19921;-79
2022/04/13 00:11:36;;;;;;;;;;;11.90;99.90;;;;;;4987701;28;19996;-79
2022/04/13 00:14:02;;;;;;;;;;;11.80;99.90;;;;;;5007933;28;20355;-78
2022/04/13 00:16:28;;;;;;;;;;;11.80;99.90;;;;;;5009687;28;19930;-78
2022/04/13 00:18:53;;;;;;;;;;;11.80;99.90;;;;;;4998127;28;19944;-78
2022/04/13 00:21:19;;;;;;;;;;;11.80;99.90;;;;;;4981974;28;20012;-78
2022/04/13 00:23:45;;;;;;;;;;;11.80;99.90;;;;;;4993888;28;19922;-78
2022/04/13 00:26:10;;;;;;;;;;;11.70;99.90;;;;;;5010837;28;19985;-78
2022/04/13 00:28:36;;;;;;;;;;;11.70;99.90;;;;;;4990579;28;19922;-83
2022/04/13 00:31:02;;;;;;;;;;;11.70;99.90;;;;;;5012801;28;20384;-78
2022/04/13 00:33:27;;;;;;;;;;;11.70;99.90;;;;;;5033561;28;20018;-78
2022/04/13 00:35:54;;;;;;;;;;;11.60;99.90;;;;;;4997393;28;19979;-79
2022/04/13 00:38:21;;;;;;;;;;;11.60;99.90;;;;;;5016500;28;19926;-78
2022/04/13 00:40:47;;;;;;;;;;;11.50;99.90;;;;;;5008535;28;20380;-79
2022/04/13 00:43:12;;;;;;;;;;;11.50;99.90;;;;;;5001111;28;19928;-78
2022/04/13 00:45:38;;;;;;;;;;;11.50;99.90;;;;;;5032237;28;19921;-85
2022/04/13 00:48:04;;;;;;;;;;;11.50;99.90;;;;;;4992073;28;20326;-78
2022/04/13 00:50:30;;;;;;;;;;;11.50;99.90;;;;;;5017496;28;19921;-78
2022/04/13 00:52:58;;;;;;;;;;;11.50;99.90;;;;;;5000793;28;20290;-78
2022/04/13 00:55:25;;;;;;;;;;;11.50;99.90;;;;;;5016851;28;19968;-78
2022/04/13 00:57:50;;;;;;;;;;;11.50;99.90;;;;;;5016099;28;19998;-78
2022/04/13 01:00:16;;;;;;;;;;;11.60;99.90;;;;;;5025625;28;20351;-79
2022/04/13 01:02:42;;;;;;;;;;;11.60;99.90;;;;;;5022985;28;20004;-78
2022/04/13 01:05:09;;;;;;;;;;;11.60;99.90;;;;;;5034530;28;19932;-78
2022/04/13 01:07:35;;;;;;;;;;;11.60;99.90;;;;;;5490291;23;20055;-79
2022/04/13 01:10:02;;;;;;;;;;;11.70;99.90;;;;;;5037672;28;19940;-79
2022/04/13 01:12:27;;;;;;;;;;;11.70;99.90;;;;;;5015600;28;19999;-79
2022/04/13 01:14:53;;;;;;;;;;;11.70;99.90;;;;;;5015202;28;19921;-80
2022/04/13 01:17:19;;;;;;;;;;;11.80;99.90;;;;;;5031753;28;20554;-80
2022/04/13 01:19:46;;;;;;;;;;;11.80;99.90;;;;;;5032699;28;20320;-80
2022/04/13 01:22:16;;;;;;;;;;;12.00;99.90;;;;;;5015341;28;20312;-79
2022/04/13 01:24:42;;;;;;;;;;;12.00;99.90;;;;;;5031508;28;19925;-80
2022/04/13 01:27:08;;;;;;;;;;;12.00;99.90;;;;;;5031851;28;19923;-80
2022/04/13 01:29:33;;;;;;;;;;;12.10;99.90;;;;;;5014896;28;20352;-80
2022/04/13 01:31:59;;;;;;;;;;;12.20;99.90;;;;;;5033810;28;19921;-79
2022/04/13 01:34:24;;;;;;;;;;;12.30;99.90;;;;;;5031036;28;19921;-79
2022/04/13 01:36:50;;;;;;;;;;;12.40;99.90;;;;;;5029718;28;19921;-79
2022/04/13 01:39:16;;;;;;;;;;;12.50;99.90;;;;;;5015238;28;19921;-79
2022/04/13 01:41:41;;;;;;;;;;;12.50;99.90;;;;;;5021793;28;20400;-79
2022/04/13 01:44:07;;;;;;;;;;;12.60;99.90;;;;;;5031280;28;20374;-79
2022/04/13 01:46:32;;;;;;;;;;;12.60;99.90;;;;;;5038811;28;19929;-79
2022/04/13 01:48:58;;;;;;;;;;;12.60;99.90;;;;;;5030911;28;19948;-79
2022/04/13 01:51:24;;;;;;;;;;;12.60;99.90;;;;;;5035806;28;20373;-79
2022/04/13 01:53:50;;;;;;;;;;;12.70;99.90;;;;;;5033169;28;19939;-79
2022/04/13 01:56:16;;;;;;;;;;;12.70;99.90;;;;;;5018465;28;20428;-79
2022/04/13 01:58:41;;;;;;;;;;;12.70;99.90;;;;;;5036484;28;20004;-78
2022/04/13 02:01:07;;;;;;;;;;;12.60;99.90;;;;;;5015957;28;20333;-79
2022/04/13 02:03:33;;;;;;;;;;;12.70;99.90;;;;;;5034100;28;19929;-79
2022/04/13 02:05:58;;;;;;;;;;;12.70;99.90;;;;;;5031498;28;19929;-79
2022/04/13 02:08:24;;;;;;;;;;;12.70;99.90;;;;;;5042639;28;20004;-79
2022/04/13 02:10:50;;;;;;;;;;;12.70;99.90;;;;;;5017655;28;19987;-79
2022/04/13 02:13:16;;;;;;;;;;;12.70;99.90;;;;;;5062524;28;19990;-79
2022/04/13 02:15:41;;;;;;;;;;;12.60;99.90;;;;;;5051792;28;20011;-79
2022/04/13 02:18:07;;;;;;;;;;;12.60;99.90;;;;;;5053754;28;20110;-79
2022/04/13 02:20:33;;;;;;;;;;;12.70;99.90;;;;;;5034435;28;19935;-79
2022/04/13 02:23:01;;;;;;;;;;;12.60;99.90;;;;;;5040443;28;19921;-79
2022/04/13 02:25:27;;;;;;;;;;;12.60;99.90;;;;;;5033667;28;19920;-79
2022/04/13 02:27:53;;;;;;;;;;;12.60;99.90;;;;;;5051594;28;19951;-80
2022/04/13 02:30:18;;;;;;;;;;;12.60;99.90;;;;;;5017539;28;19921;-79
2022/04/13 02:32:44;;;;;;;;;;;12.60;99.90;;;;;;5033956;28;19925;-79
2022/04/13 02:35:10;;;;;;;;;;;12.50;99.90;;;;;;5021616;28;20516;-79
2022/04/13 02:37:35;;;;;;;;;;;12.40;99.90;;;;;;5031984;28;19927;-79
2022/04/13 02:40:01;;;;;;;;;;;12.30;99.90;;;;;;5017318;28;19921;-79
2022/04/13 02:42:33;;;;;;;;;;;12.30;99.90;;;;;;5046227;28;19999;-79
2022/04/13 02:45:03;;;;;;;;;;;12.20;99.90;;;;;;5034023;28;19978;-79
2022/04/13 02:47:31;;;;;;;;;;;12.10;99.90;;;;;;5033618;28;20016;-79
2022/04/13 02:49:58;;;;;;;;;;;12.00;99.90;;;;;;5033557;28;20077;-79
2022/04/13 02:52:25;;;;;;;;;;;12.00;99.90;;;;;;5033813;28;19920;-79
2022/04/13 02:54:51;;;;;;;;;;;11.90;99.90;;;;;;5027035;28;20365;-79
2022/04/13 02:57:16;;;;;;;;;;;11.80;99.90;;;;;;5040593;28;19935;-79
2022/04/13 02:59:46;;;;;;;;;;;11.80;99.90;;;;;;5041083;28;20412;-80
2022/04/13 03:02:14;;;;;;;;;;;11.70;99.90;;;;;;5034901;28;20361;-80
2022/04/13 03:04:44;;;;;;;;;;;11.70;99.90;;;;;;5016138;28;19967;-80
2022/04/13 03:07:10;;;;;;;;;;;11.70;99.90;;;;;;5038003;28;19966;-79
2022/04/13 03:09:36;;;;;;;;;;;11.70;99.90;;;;;;5021405;28;19963;-80
2022/04/13 03:12:01;;;;;;;;;;;11.80;99.90;;;;;;5054566;28;19959;-80
2022/04/13 03:14:27;;;;;;;;;;;11.80;99.90;;;;;;5035591;28;19974;-80
2022/04/13 03:16:52;;;;;;;;;;;11.80;99.90;;;;;;5037092;28;19929;-80
2022/04/13 03:19:18;;;;;;;;;;;11.80;99.90;;;;;;5036859;28;19928;-80
2022/04/13 03:21:43;;;;;;;;;;;11.80;99.90;;;;;;5055262;28;19920;-80
2022/04/13 03:24:09;;;;;;;;;;;11.80;99.90;;;;;;5035215;28;19943;-80
2022/04/13 03:26:35;;;;;;;;;;;11.80;99.90;;;;;;5043856;28;19928;-80
2022/04/13 03:29:00;;;;;;;;;;;11.80;99.90;;;;;;5014770;28;19945;-80
2022/04/13 03:31:26;;;;;;;;;;;11.80;99.90;;;;;;5056244;28;19973;-80
2022/04/13 03:33:51;;;;;;;;;;;11.80;99.90;;;;;;5052939;28;20288;-80
2022/04/13 03:36:18;;;;;;;;;;;11.80;99.90;;;;;;5017613;28;20005;-79
2022/04/13 03:38:44;;;;;;;;;;;11.70;99.90;;;;;;5021692;28;19935;-80
2022/04/13 03:41:09;;;;;;;;;;;11.70;99.90;;;;;;5039850;28;19920;-80
2022/04/13 03:43:35;;;;;;;;;;;11.70;99.90;;;;;;5056199;28;19944;-80
2022/04/13 03:46:00;;;;;;;;;;;11.80;99.90;;;;;;5021937;28;19920;-80
2022/04/13 03:48:26;;;;;;;;;;;11.80;99.90;;;;;;5025514;28;19928;-80
2022/04/13 03:50:55;;;;;;;;;;;11.80;99.90;;;;;;5008627;28;19921;-80
2022/04/13 03:53:21;;;;;;;;;;;11.80;99.90;;;;;;5025414;28;19968;-80
2022/04/13 03:55:46;;;;;;;;;;;11.80;99.90;;;;;;5052004;28;19967;-79
2022/04/13 03:58:12;;;;;;;;;;;11.80;99.90;;;;;;5030451;28;20096;-79
2022/04/13 04:00:37;;;;;;;;;;;11.80;99.90;;;;;;5038249;28;19947;-79
2022/04/13 04:03:03;;;;;;;;;;;11.80;99.90;;;;;;5041391;28;19921;-83
2022/04/13 04:05:29;;;;;;;;;;;11.80;99.90;;;;;;5037329;28;20000;-80
2022/04/13 04:07:55;;;;;;;;;;;11.80;99.90;;;;;;5047254;28;20062;-81
2022/04/13 04:10:20;;;;;;;;;;;11.80;99.90;;;;;;5026345;28;19932;-80
2022/04/13 04:12:46;;;;;;;;;;;11.80;99.90;;;;;;5032993;28;20401;-80
2022/04/13 04:15:12;;;;;;;;;;;11.80;99.90;;;;;;5036066;28;19920;-80
2022/04/13 04:17:37;;;;;;;;;;;11.80;99.90;;;;;;5013126;28;19925;-81
2022/04/13 04:20:04;;;;;;;;;;;11.80;99.90;;;;;;5036427;28;19928;-80
2022/04/13 04:22:30;;;;;;;;;;;11.80;99.90;;;;;;5042205;28;19970;-81
2022/04/13 04:24:55;;;;;;;;;;;11.80;99.90;;;;;;5019202;28;20392;-81
2022/04/13 04:27:21;;;;;;;;;;;11.80;99.90;;;;;;5035695;28;20078;-81
2022/04/13 04:29:46;;;;;;;;;;;11.80;99.90;;;;;;5036482;28;19956;-81
2022/04/13 04:32:12;;;;;;;;;;;11.80;99.90;;;;;;5019131;28;19978;-80
2022/04/13 04:34:38;;;;;;;;;;;11.80;99.90;;;;;;5053750;28;19920;-81
2022/04/13 04:37:04;;;;;;;;;;;11.80;99.90;;;;;;5013565;28;19986;-80
2022/04/13 04:39:29;;;;;;;;;;;11.80;99.90;;;;;;5053503;28;19920;-85
2022/04/13 04:41:55;;;;;;;;;;;11.80;99.90;;;;;;5021706;28;19920;-83
2022/04/13 04:44:21;;;;;;;;;;;11.80;99.90;;;;;;5038973;28;19920;-88
2022/04/13 04:46:46;;;;;;;;;;;11.80;99.90;;;;;;5035639;28;19920;-85
2022/04/13 04:49:12;;;;;;;;;;;11.70;99.90;;;;;;5019572;28;20292;-85
2022/04/13 04:51:38;;;;;;;;;;;11.80;99.90;;;;;;5036545;28;20015;-83
2022/04/13 04:54:04;;;;;;;;;;;11.80;99.90;;;;;;5019776;28;19920;-84
2022/04/13 04:56:30;;;;;;;;;;;11.80;99.90;;;;;;5019030;28;19931;-84
2022/04/13 04:58:56;;;;;;;;;;;11.80;99.90;;;;;;5049012;28;20380;-83
2022/04/13 05:01:21;;;;;;;;;;;11.80;99.90;;;;;;5043757;28;19964;-83
2022/04/13 05:03:49;;;;;;;;;;;11.80;99.90;;;;;;5026721;28;19975;-84
2022/04/13 05:06:19;;;;;;;;;;;11.80;99.90;;;;;;5026736;28;19933;-84
2022/04/13 05:08:44;;;;;;;;;;;11.80;99.90;;;;;;5040634;28;20316;-84
2022/04/13 05:11:10;;;;;;;;;;;11.80;99.90;;;;;;5018080;28;19944;-84
2022/04/13 05:13:36;;;;;;;;;;;11.80;99.90;;;;;;5026607;28;20356;-82
2022/04/13 05:16:01;;;;;;;;;;;11.80;99.90;;;;;;5041563;28;19927;-84
2022/04/13 05:18:27;;;;;;;;;;;11.80;99.90;;;;;;5018483;28;19920;-83
2022/04/13 05:20:53;;;;;;;;;;;11.70;99.90;;;;;;5026095;28;19928;-84
2022/04/13 05:23:18;;;;;;;;;;;11.70;99.90;;;;;;5027719;28;20050;-84
2022/04/13 05:25:46;;;;;;;;;;;11.70;99.90;;;;;;5061358;28;19995;-84
2022/04/13 05:28:12;;;;;;;;;;;11.70;99.90;;;;;;5042186;28;20042;-83
2022/04/13 05:30:37;;;;;;;;;;;11.70;99.90;;;;;;5028734;28;19963;-83
2022/04/13 05:33:03;;;;;;;;;;;11.70;99.90;;;;;;5042625;28;19989;-83
2022/04/13 05:35:29;;;;;;;;;;;11.70;99.90;;;;;;5043729;28;20335;-83
2022/04/13 05:37:55;;;;;;;;;;;11.70;99.90;;;;;;5040668;28;19921;-84
2022/04/13 05:40:22;;;;;;;;;;;11.80;99.90;;;;;;5042650;28;19955;-85
2022/04/13 05:42:48;;;;;;;;;;;11.80;99.90;;;;;;5040945;28;20285;-84
2022/04/13 05:45:14;;;;;;;;;;;11.80;99.90;;;;;;5019592;28;19925;-84
2022/04/13 05:47:42;;;;;;;;;;;11.80;99.90;;;;;;5033427;28;19920;-84
2022/04/13 05:50:08;;;;;;;;;;;11.80;99.90;;;;;;5033911;28;20012;-83
2022/04/13 05:52:34;;;;;;;;;;;11.80;99.90;;;;;;5043698;28;20005;-83
2022/04/13 05:54:59;;;;;;;;;;;11.80;99.90;;;;;;5017998;28;19967;-85
2022/04/13 05:57:25;;;;;;;;;;;11.90;99.90;;;;;;5055861;28;19920;-83
2022/04/13 05:59:51;;;;;;;;;;;11.90;99.90;;;;;;5033219;28;19928;-81
2022/04/13 06:02:16;;;;;;;;;;;11.80;99.90;;;;;;5017420;28;19927;-80
2022/04/13 06:04:42;;;;;;;;;;;11.80;99.90;;;;;;5017294;28;19924;-82
2022/04/13 06:07:07;;;;;;;;;;;11.90;99.90;;;;;;5036169;28;19925;-83
2022/04/13 06:09:33;;;;;;;;;;;11.90;99.90;;;;;;5041463;28;19928;-83
2022/04/13 06:11:59;;;;;;;;;;;11.90;99.90;;;;;;5017528;28;19921;-85
2022/04/13 06:14:24;;;;;;;;;;;11.90;99.90;;;;;;5033659;28;19920;-86
2022/04/13 06:16:50;;;;;;;;;;;11.90;99.90;;;;;;5016890;28;20296;-86
2022/04/13 06:19:15;;;;;;;;;;;11.90;99.90;;;;;;5017411;28;20003;-84
2022/04/13 06:21:41;;;;;;;;;;;11.90;99.90;;;;;;5017320;28;20019;-85
2022/04/13 06:24:07;;;;;;;;;;;11.90;99.90;;;;;;5017734;28;19928;-86
2022/04/13 06:26:32;;;;;;;;;;;11.90;99.90;;;;;;5033557;28;19936;-82
2022/04/13 06:28:58;;;;;;;;;;;11.90;99.90;;;;;;5033344;28;19920;-83
2022/04/13 06:31:23;;;;;;;;;;;11.90;99.90;;;;;;5032680;28;19956;-82
2022/04/13 06:33:49;;;;;;;;;;;11.90;99.90;;;;;;5037339;28;19920;-84
2022/04/13 06:36:15;;;;;;;;;;;11.90;99.90;;;;;;5022390;28;20007;-82
2022/04/13 06:38:40;;;;;;;;;;;12.00;99.90;;;;;;5025025;28;19924;-82
2022/04/13 06:41:09;;;;;;;;;;;11.90;99.90;;;;;;5046303;28;20011;-81
2022/04/13 06:43:35;;;;;;;;;;;12.00;99.90;;;;;;4997895;28;19920;-82
2022/04/13 06:46:00;;;;;;;;;;;12.00;99.90;;;;;;5037220;28;20388;-82
2022/04/13 06:48:26;;;;;;;;;;;12.00;99.90;;;;;;5020957;28;19974;-82
2022/04/13 06:50:52;;;;;;;;;;;12.00;99.90;;;;;;5045739;28;20035;-82
2022/04/13 06:53:18;;;;;;;;;;;12.10;99.90;;;;;;5037513;28;20331;-82
2022/04/13 06:55:44;;;;;;;;;;;12.20;99.90;;;;;;5034856;28;19991;-82
2022/04/13 06:58:10;;;;;;;;;;;12.20;99.90;;;;;;5032374;28;19920;-82
2022/04/13 07:00:36;;;;;;;;;;;12.30;99.90;;;;;;5037997;28;20659;-81
2022/04/13 07:03:02;;;;;;;;;;;12.30;99.90;;;;;;5034413;28;19921;-83
2022/04/13 07:05:28;;;;;;;;;;;12.40;99.90;;;;;;5008323;28;20374;-83
2022/04/13 07:07:57;;;;;;;;;;;12.40;99.90;;;;;;5045026;28;20375;-85
2022/04/13 07:10:23;;;;;;;;;;;12.50;99.90;;;;;;5047152;28;20416;-85
2022/04/13 07:12:49;;;;;;;;;;;12.50;99.90;;;;;;5044934;28;20257;-85
2022/04/13 07:15:17;;;;;;;;;;;12.60;99.90;;;;;;5033786;28;19931;-84
2022/04/13 07:17:43;;;;;;;;;;;12.70;99.90;;;;;;5028642;28;20011;-84
2022/04/13 07:20:10;;;;;;;;;;;12.80;99.90;;;;;;5031093;28;19921;-81
2022/04/13 07:22:45;;;;;;;;;;;12.90;99.90;;;;;;5037801;28;20435;-83
2022/04/13 07:25:11;;;;;;;;;;;12.90;99.90;;;;;;5024739;28;19960;-85
2022/04/13 07:27:36;;;;;;;;;;;13.00;99.90;;;;;;5043706;28;20035;-83
2022/04/13 07:30:03;;;;;;;;;;;13.10;99.90;;;;;;5037073;28;19928;-83
2022/04/13 07:32:28;;;;;;;;;;;13.30;99.90;;;;;;5036329;28;20331;-82
2022/04/13 07:34:54;;;;;;;;;;;13.40;99.90;;;;;;5035500;28;19927;-81
2022/04/13 07:37:19;;;;;;;;;;;13.60;99.90;;;;;;5053591;28;19971;-81
2022/04/13 07:39:45;;;;;;;;;;;13.80;99.90;;;;;;5036830;28;19925;-80
2022/04/13 07:42:10;;;;;;;;;;;14.00;99.90;;;;;;5036258;28;19920;-82
2022/04/13 07:44:36;;;;;;;;;;;14.10;99.90;;;;;;5020040;28;19921;-82
2022/04/13 07:47:01;;;;;;;;;;;14.20;99.90;;;;;;5021156;28;20327;-82
2022/04/13 07:49:27;;;;;;;;;;;14.30;99.90;;;;;;5030618;28;19925;-82
2022/04/13 07:51:53;;;;;;;;;;;14.30;99.90;;;;;;5036817;28;19925;-82
2022/04/13 07:54:18;;;;;;;;;;;14.20;99.90;;;;;;5019730;28;20015;-83
2022/04/13 07:56:44;;;;;;;;;;;14.30;99.90;;;;;;5021009;28;20428;-82
2022/04/13 07:59:09;;;;;;;;;;;14.40;99.90;;;;;;5024657;28;19924;-83
2022/04/13 08:01:35;;;;;;;;;;;14.50;99.90;;;;;;5037737;28;19921;-82
2022/04/13 08:04:00;;;;;;;;;;;14.50;99.90;;;;;;5024766;28;19983;-83
2022/04/13 08:06:26;;;;;;;;;;;14.50;99.90;;;;;;4997634;28;19928;-81
2022/04/13 08:08:52;;;;;;;;;;;14.50;99.90;;;;;;4993352;28;20702;-79
2022/04/13 08:11:18;;;;;;;;;;;14.50;99.90;;;;;;5040035;28;20013;-80
2022/04/13 08:13:44;;;;;;;;;;;14.50;99.90;;;;;;5019629;28;19972;-79
2022/04/13 08:16:09;;;;;;;;;;;14.60;99.90;;;;;;5036521;28;19927;-81
2022/04/13 08:18:35;;;;;;;;;;;14.50;99.90;;;;;;5019375;28;19943;-81
2022/04/13 08:21:02;;;;;;;;;;;14.50;99.90;;;;;;5036743;28;19921;-79
2022/04/13 08:23:28;;;;;;;;;;;14.50;99.90;;;;;;5039094;28;19996;-83
2022/04/13 08:25:53;;;;;;;;;;;14.60;99.90;;;;;;5021949;28;19920;-81
2022/04/13 08:28:19;;;;;;;;;;;14.60;99.90;;;;;;5020040;28;19928;-81
2022/04/13 08:30:44;;;;;;;;;;;14.60;99.90;;;;;;5019121;28;20603;-81
2022/04/13 08:33:10;;;;;;;;;;;14.70;99.90;;;;;;5019804;28;20004;-81
2022/04/13 08:35:36;;;;;;;;;;;14.70;99.90;;;;;;5012698;28;19971;-83
2022/04/13 08:38:01;;;;;;;;;;;14.80;99.90;;;;;;5016341;28;19929;-82
2022/04/13 08:40:30;;;;;;;;;;;14.80;99.90;;;;;;5044406;28;20004;-83
2022/04/13 08:42:56;;;;;;;;;;;14.80;99.90;;;;;;5042713;28;19947;-84
2022/04/13 08:45:22;;;;;;;;;;;14.80;99.90;;;;;;5043951;28;19920;-84
2022/04/13 08:47:49;;;;;;;;;;;14.80;99.90;;;;;;5027039;28;20022;-81
2022/04/13 08:50:16;;;;;;;;;;;14.90;99.90;;;;;;5043615;28;19920;-84
2022/04/13 08:52:43;;;;;;;;;;;15.00;99.90;;;;;;5044674;28;19921;-84
2022/04/13 08:55:09;;;;;;;;;;;15.10;99.90;;;;;;5038968;28;19929;-84
2022/04/13 08:57:39;;;;;;;;;;;15.10;99.90;;;;;;5026626;28;20157;-84
2022/04/13 09:00:14;;;;;;;;;;;15.20;99.90;;;;;;5042741;28;19972;-84
2022/04/13 09:02:43;;;;;;;;;;;15.20;99.90;;;;;;5044032;28;19920;-84
2022/04/13 09:05:12;;;;;;;;;;;15.50;99.90;;;;;;5041784;28;20417;-84
2022/04/13 09:07:39;;;;;;;;;;;15.70;99.90;;;;;;5025120;28;20203;-80
2022/04/13 09:10:07;;;;;;;;;;;15.70;99.90;;;;;;5024728;28;20395;-83
2022/04/13 09:12:35;;;;;;;;;;;15.80;99.90;;;;;;5040527;28;20043;-82
2022/04/13 09:15:02;;;;;;;;;;;15.70;99.90;;;;;;5035062;28;20407;-87
2022/04/13 09:17:29;;;;;;;;;;;15.70;99.90;;;;;;5018726;28;19925;-86
2022/04/13 09:19:58;;;;;;;;;;;15.80;99.90;;;;;;5018925;28;20007;-86
2022/04/13 09:22:24;;;;;;;;;;;15.90;99.90;;;;;;5034832;28;19924;-84
2022/04/13 09:24:52;;;;;;;;;;;15.90;99.90;;;;;;5034659;28;19921;-84
2022/04/13 09:27:20;;;;;;;;;;;16.00;99.90;;;;;;5035035;28;19925;-84
2022/04/13 09:29:46;;;;;;;;;;;16.10;99.90;;;;;;5034510;28;20372;-83
2022/04/13 09:32:12;;;;;;;;;;;16.20;99.90;;;;;;5018411;28;19925;-84
2022/04/13 09:34:37;;;;;;;;;;;16.40;99.90;;;;;;5017795;28;19924;-84
2022/04/13 09:37:03;;;;;;;;;;;16.60;99.90;;;;;;5016518;28;19924;-85
2022/04/13 09:39:29;;;;;;;;;;;16.80;99.90;;;;;;5035073;28;19925;-84
2022/04/13 09:42:00;;;;;;;;;;;16.80;99.90;;;;;;5051963;28;19925;-84
2022/04/13 09:44:29;;;;;;;;;;;16.80;99.90;;;;;;5016192;28;19921;-84
2022/04/13 09:47:04;;;;;;;;;;;16.70;99.90;;;;;;5034240;28;19921;-84
2022/04/13 09:49:29;;;;;;;;;;;16.70;99.90;;;;;;5021711;28;19931;-84
2022/04/13 09:51:55;;;;;;;;;;;16.70;99.90;;;;;;4998491;28;19921;-84
2022/04/13 09:54:23;;;;;;;;;;;16.70;99.90;;;;;;5013469;28;20510;-84
2022/04/13 09:56:48;;;;;;;;;;;16.70;99.90;;;;;;5033745;28;20357;-85
2022/04/13 09:59:28;;;;;;;;;;;16.80;99.90;;;;;;5034271;28;19947;-84
2022/04/13 10:01:53;;;;;;;;;;;16.90;99.90;;;;;;5034527;28;19979;-85
2022/04/13 10:04:26;;;;;;;;;;;16.80;99.90;;;;;;5033563;28;19920;-84
2022/04/13 10:06:52;;;;;;;;;;;16.90;99.90;;;;;;5020626;28;19947;-84
2022/04/13 10:09:19;;;;;;;;;;;16.90;99.90;;;;;;5034298;28;19924;-84
2022/04/13 10:12:03;;;;;;;;;;;16.80;99.90;;;;;;5017897;28;19928;-85
2022/04/13 10:14:29;;;;;;;;;;;16.80;99.90;;;;;;5035046;28;20316;-84
2022/04/13 10:17:04;;;;;;;;;;;16.60;99.90;;;;;;5033396;28;19931;-84
2022/04/13 10:19:30;;;;;;;;;;;16.60;99.90;;;;;;5034724;28;19928;-84
2022/04/13 10:21:57;;;;;;;;;;;16.70;99.90;;;;;;5016910;28;19920;-84
2022/04/13 10:24:30;;;;;;;;;;;16.70;99.90;;;;;;5017810;28;19928;-84
2022/04/13 10:27:03;;;;;;;;;;;16.70;99.90;;;;;;5033709;28;19928;-84
2022/04/13 10:29:29;;;;;;;;;;;16.80;99.90;;;;;;5034215;28;19978;-85
2022/04/13 10:32:03;;;;;;;;;;;16.70;99.90;;;;;;5033971;28;20010;-84
2022/04/13 10:34:32;;;;;;;;;;;16.70;99.90;;;;;;5033754;28;19921;-85
2022/04/13 10:36:58;;;;;;;;;;;16.90;99.90;;;;;;5028423;28;19939;-85
2022/04/13 10:39:24;;;;;;;;;;;16.90;99.90;;;;;;5014236;28;19921;-86
2022/04/13 10:41:49;;;;;;;;;;;16.90;99.90;;;;;;5034399;28;19917;-85
2022/04/13 10:44:18;;;;;;;;;;;16.90;99.90;;;;;;5034189;28;19966;-83
2022/04/13 10:46:48;;;;;;;;;;;17.00;99.90;;;;;;5033092;28;20397;-87
2022/04/13 10:49:17;;;;;;;;;;;16.90;99.90;;;;;;5021396;28;20297;-87
2022/04/13 10:51:44;;;;;;;;;;;16.90;99.90;;;;;;5039889;28;19978;-82
2022/04/13 10:54:11;;;;;;;;;;;17.00;99.90;;;;;;5042335;28;20041;-85
2022/04/13 10:56:39;;;;;;;;;;;17.00;99.90;;;;;;5022152;28;20384;-86
2022/04/13 10:59:32;;;;;;;;;;;17.20;99.90;;;;;;5031160;28;20389;-88
2022/04/13 11:01:59;;;;;;;;;;;17.20;99.90;;;;;;5012917;28;19932;-86
2022/04/13 11:04:27;;;;;;;;;;;17.10;99.90;;;;;;5009341;28;20436;-86
2022/04/13 11:06:53;;;;;;;;;;;17.10;99.90;;;;;;5023287;28;20591;-83
2022/04/13 11:09:21;;;;;;;;;;;17.00;99.90;;;;;;5039665;28;19921;-82
2022/04/13 11:11:47;;;;;;;;;;;17.10;99.90;;;;;;5050939;28;20015;-88
2022/04/13 11:14:18;;;;;;;;;;;17.10;99.90;;;;;;5017407;28;19928;-86
2022/04/13 11:16:43;;;;;;;;;;;17.10;99.90;;;;;;5033914;28;19967;-87
2022/04/13 11:19:09;;;;;;;;;;;17.00;99.90;;;;;;5043778;28;19956;-85
2022/04/13 11:21:54;;;;;;;;;;;17.00;99.90;;;;;;5025646;28;19921;-87
2022/04/13 11:24:43;;;;;;;;;;;16.90;99.90;;;;;;5028890;28;19928;-88
2022/04/13 11:27:09;;;;;;;;;;;16.70;99.90;;;;;;5010649;28;19924;-87
2022/04/13 11:29:39;;;;;;;;;;;16.70;99.90;;;;;;5015415;28;19943;-86
2022/04/13 11:32:06;;;;;;;;;;;16.70;99.90;;;;;;5037302;28;20133;-88
2022/04/13 11:34:34;;;;;;;;;;;16.60;99.90;;;;;;5037790;28;20367;-84
2022/04/13 11:37:01;;;;;;;;;;;16.50;99.90;;;;;;5031100;28;19924;-82
2022/04/13 11:39:45;;;;;;;;;;;16.50;99.90;;;;;;5026592;28;19935;-85
2022/04/13 11:42:15;;;;;;;;;;;16.60;99.90;;;;;;5033683;28;19928;-87
2022/04/13 11:44:45;;;;;;;;;;;16.70;99.90;;;;;;5020920;28;19921;-86
2022/04/13 11:47:15;;;;;;;;;;;16.80;99.90;;;;;;5012131;28;19921;-84
2022/04/13 11:50:05;;;;;;;;;;;16.70;99.90;;;;;;5031311;28;20031;-88
2022/04/13 11:52:48;;;;;;;;;;;16.80;99.90;;;;;;5015369;28;20393;-86
2022/04/13 11:55:24;;;;;;;;;;;16.80;99.90;;;;;;5020607;28;19969;-84
2022/04/13 11:57:50;;;;;;;;;;;16.80;99.90;;;;;;5039269;28;19925;-83
2022/04/13 12:00:35;;;;;;;;;;;16.90;99.90;;;;;;5036763;28;20349;-86
2022/04/13 12:03:01;;;;;;;;;;;17.00;99.90;;;;;;5032858;28;19924;-84
2022/04/13 12:05:27;;;;;;;;;;;17.00;99.90;;;;;;5020241;28;20008;-85
2022/04/13 12:07:53;;;;;;;;;;;17.00;99.90;;;;;;5019474;28;19931;-84
2022/04/13 12:10:18;;;;;;;;;;;16.90;99.90;;;;;;5036473;28;19921;-84
2022/04/13 12:12:51;;;;;;;;;;;16.90;99.90;;;;;;5036091;28;19970;-84
2022/04/13 12:15:17;;;;;;;;;;;16.80;99.90;;;;;;5019521;28;19982;-84
2022/04/13 12:17:42;;;;;;;;;;;16.70;99.90;;;;;;5036612;28;20424;-84
2022/04/13 12:20:08;;;;;;;;;;;16.60;99.90;;;;;;5019746;28;20302;-81
2022/04/13 12:22:34;;;;;;;;;;;16.70;99.90;;;;;;5036554;28;19990;-87
2022/04/13 12:25:04;;;;;;;;;;;16.70;99.90;;;;;;5036224;28;19935;-85
2022/04/13 12:27:30;;;;;;;;;;;16.60;99.90;;;;;;5035549;28;19920;-86
2022/04/13 12:30:11;;;;;;;;;;;16.60;99.90;;;;;;5035971;28;19917;-85
2022/04/13 12:32:47;;;;;;;;;;;16.60;99.90;;;;;;5035342;28;20427;-85
2022/04/13 12:35:14;;;;;;;;;;;16.70;99.90;;;;;;5002006;28;20019;-85
2022/04/13 12:37:53;;;;;;;;;;;16.70;99.90;;;;;;5017340;28;20028;-85
2022/04/13 12:40:23;;;;;;;;;;;16.70;99.90;;;;;;5020462;28;19983;-85
2022/04/13 12:42:48;;;;;;;;;;;16.60;99.90;;;;;;5018978;28;19921;-82
2022/04/13 12:45:14;;;;;;;;;;;16.40;99.90;;;;;;5019022;28;20273;-81
2022/04/13 12:47:44;;;;;;;;;;;16.60;99.90;;;;;;5027244;28;19933;-82
2022/04/13 12:50:10;;;;;;;;;;;16.70;99.90;;;;;;5029415;28;20486;-81
2022/04/13 12:52:35;;;;;;;;;;;16.50;99.90;;;;;;5029021;28;19971;-84
2022/04/13 12:55:01;;;;;;;;;;;16.40;99.90;;;;;;5013344;28;19920;-83
2022/04/13 12:57:27;;;;;;;;;;;16.30;99.90;;;;;;5033637;28;19920;-83
2022/04/13 12:59:52;;;;;;;;;;;16.30;99.90;;;;;;5029807;28;19928;-83
2022/04/13 13:02:18;;;;;;;;;;;16.70;99.90;;;;;;5017033;28;19921;-86
2022/04/13 13:04:46;;;;;;;;;;;17.00;99.90;;;;;;5019734;28;19921;-86
2022/04/13 13:07:11;;;;;;;;;;;17.40;99.90;;;;;;5014851;28;19924;-84
2022/04/13 13:09:38;;;;;;;;;;;18.10;99.90;;;;;;5033736;28;20442;-84
2022/04/13 13:12:07;;;;;;;;;;;18.40;99.90;;;;;;5018404;28;20393;-83
2022/04/13 13:14:34;;;;;;;;;;;19.00;99.90;;;;;;5018676;28;19974;-82
2022/04/13 13:17:13;;;;;;;;;;;19.30;99.90;;;;;;5016480;28;19921;-80
2022/04/13 13:19:39;;;;;;;;;;;19.20;99.90;;;;;;5004119;28;19935;-80
2022/04/13 13:22:11;;;;;;;;;;;19.30;99.90;;;;;;5004114;28;19921;-80
2022/04/13 13:24:45;;;;;;;;;;;19.00;99.90;;;;;;5015906;28;20676;-80
2022/04/13 13:27:11;;;;;;;;;;;18.70;99.90;;;;;;5017685;28;19929;-81
2022/04/13 13:29:43;;;;;;;;;;;18.50;99.90;;;;;;5024397;28;19920;-81
2022/04/13 13:32:10;;;;;;;;;;;18.30;99.90;;;;;;5014693;28;19920;-80
2022/04/13 13:34:36;;;;;;;;;;;18.10;99.90;;;;;;5022481;28;20366;-80
2022/04/13 13:37:01;;;;;;;;;;;18.10;99.90;;;;;;5027884;28;19920;-82
2022/04/13 13:39:27;;;;;;;;;;;18.00;99.90;;;;;;5018628;28;19971;-79
2022/04/13 13:42:03;;;;;;;;;;;17.80;99.90;;;;;;5027156;28;20104;-81
2022/04/13 13:44:28;;;;;;;;;;;17.70;99.90;;;;;;5002552;28;20416;-81
2022/04/13 13:46:54;;;;;;;;;;;18.00;99.90;;;;;;5015880;28;19921;-81
2022/04/13 13:49:19;;;;;;;;;;;18.10;99.90;;;;;;5014348;28;19935;-83
2022/04/13 13:51:48;;;;;;;;;;;18.10;99.90;;;;;;5017234;28;19951;-83
2022/04/13 13:54:13;;;;;;;;;;;18.30;99.90;;;;;;5016938;28;19963;-83
2022/04/13 13:56:39;;;;;;;;;;;18.60;99.90;;;;;;5015903;28;19929;-81
2022/04/13 13:59:04;;;;;;;;;;;18.90;99.90;;;;;;5014735;28;19928;-81
2022/04/13 14:01:30;;;;;;;;;;;19.20;99.90;;;;;;5018541;28;20510;-82
2022/04/13 14:03:55;;;;;;;;;;;19.70;99.90;;;;;;5015624;28;19920;-83
2022/04/13 14:06:21;;;;;;;;;;;20.20;99.90;;;;;;5031854;28;19917;-85
2022/04/13 14:08:50;;;;;;;;;;;20.40;99.90;;;;;;4999608;28;20375;-85
2022/04/13 14:11:16;;;;;;;;;;;20.70;99.90;;;;;;5015581;28;19925;-83
2022/04/13 14:13:42;;;;;;;;;;;20.90;99.90;;;;;;5037253;28;19953;-79
2022/04/13 14:16:07;;;;;;;;;;;20.90;99.90;;;;;;4997058;28;19932;-80